Time;durP1;ratioP1;P1;durP2;ratioP2;P2;SDS_P1;SDS_P2;PMS_P1;PMS_P2;Temp;Humidity;BMP_temperature;BMP_pressure;BME280_temperature;BME280_humidity;BME280_pressure;Samples;Min_cycle;Max_cycle;Signal;HPM_P1;HPM_P2
2022/09/22 00:00:02;;;;;;;1.90;1.65;;;;;;;;;;2055960;28;20061;-91
2022/09/22 00:01:12;;;;;;;2.28;1.90;;;;;;;;;;2055928;28;20117;-90
2022/09/22 00:02:13;;;;;;;3.72;2.00;;;;;;;;;;2057483;28;20062;-91
2022/09/22 00:03:22;;;;;;;2.40;1.90;;;;;;;;;;2064066;28;20034;-91
2022/09/22 00:04:27;;;;;;;3.47;1.95;;;;;;;;;;2058925;28;20041;-96
2022/09/22 00:05:27;;;;;;;2.10;1.90;;;;;;;;;;2056324;28;20061;-91
2022/09/22 00:06:29;;;;;;;;;;;;;;;;;;2057106;28;20038;-90
2022/09/22 00:07:29;;;;;;;2.03;1.65;;;;;;;;;;2056268;28;19916;-89
2022/09/22 00:08:31;;;;;;;;;;;;;;;;;;2057240;28;20027;-90
2022/09/22 00:09:31;;;;;;;2.25;2.03;;;;;;;;;;2056673;28;19910;-92
2022/09/22 00:10:31;;;;;;;;;;;;;;;;;;2064387;28;20068;-91
2022/09/22 00:11:36;;;;;;;2.23;1.90;;;;;;;;;;2063934;28;19910;-91
2022/09/22 00:12:36;;;;;;;2.42;1.80;;;;;;;;;;2055678;28;20026;-91
2022/09/22 00:13:37;;;;;;;;;;;;;;;;;;2056207;28;20027;-90
2022/09/22 00:14:37;;;;;;;2.13;1.80;;;;;;;;;;2058688;28;19937;-90
2022/09/22 00:15:44;;;;;;;2.23;2.03;;;;;;;;;;1936485;28;5001594;-90
2022/09/22 00:16:54;;;;;;;1.90;1.67;;;;;;;;;;2049964;28;20113;-89
2022/09/22 00:17:55;;;;;;;2.00;1.67;;;;;;;;;;2065772;28;20539;-90
2022/09/22 00:18:55;;;;;;;;;;;;;;;;;;2072364;28;20075;-90
2022/09/22 00:19:56;;;;;;;2.17;1.67;;;;;;;;;;2072367;28;19917;-90
2022/09/22 00:20:56;;;;;;;2.33;1.50;;;;;;;;;;2064586;28;20040;-90
2022/09/22 00:21:57;;;;;;;2.00;1.73;;;;;;;;;;2072025;28;20022;-90
2022/09/22 00:22:57;;;;;;;1.58;1.48;;;;;;;;;;2071966;28;20453;-90
2022/09/22 00:24:01;;;;;;;1.98;1.75;;;;;;;;;;2063851;28;20027;-90
2022/09/22 00:25:02;;;;;;;2.05;1.70;;;;;;;;;;2071656;28;20046;-90
2022/09/22 00:26:10;;;;;;;;;;;;;;;;;;2072068;28;20069;-90
2022/09/22 00:27:11;;;;;;;1.75;1.42;;;;;;;;;;2071956;28;20055;-90
2022/09/22 00:28:11;;;;;;;;;;;;;;;;;;2072347;28;20022;-90
2022/09/22 00:29:12;;;;;;;2.20;2.00;;;;;;;;;;2055691;28;19910;-90
2022/09/22 00:30:13;;;;;;;2.15;1.67;;;;;;;;;;2056005;28;20105;-90
2022/09/22 00:31:17;;;;;;;3.65;1.73;;;;;;;;;;2055511;28;20521;-90
2022/09/22 00:32:17;;;;;;;2.15;1.90;;;;;;;;;;2063812;28;20482;-90
2022/09/22 00:33:18;;;;;;;;;;;;;;;;;;2063849;28;20367;-89
2022/09/22 00:34:21;;;;;;;1.50;1.40;;;;;;;;;;2055483;28;20313;-90
2022/09/22 00:35:22;;;;;;;2.60;1.70;;;;;;;;;;2055792;28;20501;-90
2022/09/22 00:36:24;;;;;;;;;;;;;;;;;;2064303;28;20019;-89
2022/09/22 00:37:25;;;;;;;2.80;1.70;;;;;;;;;;2064162;28;19955;-89
2022/09/22 00:38:26;;;;;;;;;;;;;;;;;;2064615;28;20453;-90
2022/09/22 00:39:29;;;;;;;2.05;1.63;;;;;;;;;;1720687;28;10198075;-95
2022/09/22 00:40:31;;;;;;;3.58;1.73;;;;;;;;;;2065482;28;20030;-95
2022/09/22 00:41:35;;;;;;;2.38;1.60;;;;;;;;;;2057916;28;20030;-95
2022/09/22 00:42:35;;;;;;;3.17;1.67;;;;;;;;;;2057603;28;20030;-96
2022/09/22 00:43:37;;;;;;;;;;;;;;;;;;2058036;28;20043;-94
2022/09/22 00:44:39;;;;;;;2.10;1.67;;;;;;;;;;2057702;28;19921;-94
2022/09/22 00:45:40;;;;;;;2.00;1.45;;;;;;;;;;2073762;28;20030;-94
2022/09/22 00:46:43;;;;;;;;;;;;;;;;;;2074184;28;20049;-96
2022/09/22 00:47:45;;;;;;;1.95;1.65;;;;;;;;;;2065035;28;20381;-95
2022/09/22 00:48:56;;;;;;;2.45;1.88;;;;;;;;;;2065368;28;20475;-95
2022/09/22 00:50:09;;;;;;;2.58;1.83;;;;;;;;;;2072847;28;20568;-96
2022/09/22 00:51:12;;;;;;;1.92;1.67;;;;;;;;;;2072967;28;20448;-95
2022/09/22 00:52:16;;;;;;;3.70;1.63;;;;;;;;;;2058105;28;20023;-94
2022/09/22 00:53:19;;;;;;;2.08;1.75;;;;;;;;;;2058529;28;20094;-95
2022/09/22 00:54:24;;;;;;;2.58;1.50;;;;;;;;;;1850068;28;10001507;-95
2022/09/22 00:55:35;;;;;;;2.00;1.75;;;;;;;;;;2057514;28;20240;-94
2022/09/22 00:57:05;;;;;;;2.15;1.70;;;;;;;;;;2064934;28;20121;-93
2022/09/22 00:58:08;;;;;;;3.58;1.80;;;;;;;;;;2060361;28;20034;-95
2022/09/22 00:59:15;;;;;;;2.25;2.00;;;;;;;;;;2064730;28;20030;-95
2022/09/22 01:00:16;;;;;;;2.85;1.70;;;;;;;;;;1715884;28;10131902;-95
2022/09/22 01:01:18;;;;;;;2.20;1.80;;;;;;;;;;2065085;28;20026;-95
2022/09/22 01:02:19;;;;;;;3.13;1.75;;;;;;;;;;2073169;28;20026;-95
2022/09/22 01:03:22;;;;;;;2.58;1.73;;;;;;;;;;2072830;28;20071;-95
2022/09/22 01:04:22;;;;;;;2.40;1.63;;;;;;;;;;2065000;28;20045;-95
2022/09/22 01:05:24;;;;;;;;;;;;;;;;;;2066047;28;20496;-96
2022/09/22 01:06:27;;;;;;;2.38;1.70;;;;;;;;;;2064912;28;20408;-95
2022/09/22 01:07:29;;;;;;;2.28;1.88;;;;;;;;;;2064360;28;20545;-94
2022/09/22 01:08:32;;;;;;;2.53;1.67;;;;;;;;;;2064393;28;20049;-95
2022/09/22 01:09:33;;;;;;;2.63;2.03;;;;;;;;;;2072707;28;20049;-94
2022/09/22 01:10:33;;;;;;;;;;;;;;;;;;2065174;28;20050;-94
2022/09/22 01:11:36;;;;;;;1.93;1.73;;;;;;;;;;2064536;28;19909;-94
2022/09/22 01:12:45;;;;;;;2.25;2.05;;;;;;;;;;2056956;28;20074;-94
2022/09/22 01:14:20;;;;;;;3.38;2.03;;;;;;;;;;2057710;28;20555;-95
2022/09/22 01:15:32;;;;;;;3.00;1.90;;;;;;;;;;2061075;28;20026;-93
2022/09/22 01:16:50;;;;;;;2.30;2.03;;;;;;;;;;2061871;28;20028;-95
2022/09/22 01:17:53;;;;;;;2.47;1.80;;;;;;;;;;2070271;28;20358;-95
2022/09/22 01:19:21;;;;;;;3.25;2.30;;;;;;;;;;2056950;28;20070;-94
2022/09/22 01:20:39;;;;;;;1.90;1.70;;;;;;;;;;2060226;28;20034;-94
2022/09/22 01:21:46;;;;;;;1.98;1.77;;;;;;;;;;2066913;28;20038;-96
2022/09/22 01:23:37;;;;;;;3.97;1.85;;;;;;;;;;2064616;28;20479;-94
2022/09/22 01:24:58;;;;;;;2.72;2.30;;;;;;;;;;2054927;28;20086;-95
2022/09/22 01:26:12;;;;;;;3.00;2.00;;;;;;;;;;2057673;28;20030;-95
2022/09/22 01:27:46;;;;;;;2.65;2.17;;;;;;;;;;2065335;28;20030;-94
2022/09/22 01:29:20;;;;;;;2.42;2.13;;;;;;;;;;2067473;28;20041;-95
2022/09/22 01:30:23;;;;;;;1.88;1.60;;;;;;;;;;2060803;28;20204;-94
2022/09/22 01:31:42;;;;;;;4.32;2.10;;;;;;;;;;2056718;28;20030;-94
2022/09/22 01:33:16;;;;;;;3.85;2.20;;;;;;;;;;2058803;28;20019;-96
2022/09/22 01:34:30;;;;;;;4.45;2.25;;;;;;;;;;2061927;28;20470;-95
2022/09/22 01:35:48;;;;;;;3.25;2.30;;;;;;;;;;2066157;28;20030;-94
2022/09/22 01:37:15;;;;;;;3.08;2.78;;;;;;;;;;2074094;28;20026;-95
2022/09/22 01:38:30;;;;;;;3.22;2.42;;;;;;;;;;2073220;28;20026;-95
2022/09/22 01:39:38;;;;;;;3.00;2.15;;;;;;;;;;2072367;28;20158;-95
2022/09/22 01:40:53;;;;;;;2.85;2.58;;;;;;;;;;2065971;28;20188;-94
2022/09/22 01:42:17;;;;;;;2.95;2.47;;;;;;;;;;2065303;28;20022;-94
2022/09/22 01:43:34;;;;;;;3.28;2.30;;;;;;;;;;1704035;28;10342915;-93
2022/09/22 01:44:48;;;;;;;2.75;2.15;;;;;;;;;;2066263;28;20311;-93
2022/09/22 01:46:11;;;;;;;2.88;2.30;;;;;;;;;;2064600;28;20025;-93
2022/09/22 01:47:31;;;;;;;4.28;2.63;;;;;;;;;;2067412;28;20030;-94
2022/09/22 01:48:34;;;;;;;3.30;2.20;;;;;;;;;;2064889;28;20088;-95
2022/09/22 01:49:39;;;;;;;3.25;2.45;;;;;;;;;;2064552;28;20034;-95
2022/09/22 01:50:51;;;;;;;2.72;2.53;;;;;;;;;;2065446;28;20031;-95
2022/09/22 01:51:58;;;;;;;2.80;2.47;;;;;;;;;;2064531;28;20060;-95
2022/09/22 01:53:04;;;;;;;3.40;2.50;;;;;;;;;;2065042;28;20034;-95
2022/09/22 01:54:15;;;;;;;2.55;1.98;;;;;;;;;;2056895;28;20054;-95
2022/09/22 01:55:18;;;;;;;;;;;;;;;;;;2066749;28;20397;-93
2022/09/22 01:56:22;;;;;;;3.88;2.58;;;;;;;;;;2072963;28;19910;-96
2022/09/22 01:57:45;;;;;;;3.20;2.47;;;;;;;;;;2072904;28;20049;-96
2022/09/22 01:59:01;;;;;;;3.20;2.33;;;;;;;;;;2059717;28;20121;-94
2022/09/22 02:00:06;;;;;;;3.28;2.55;;;;;;;;;;2059197;28;20022;-95
2022/09/22 02:01:24;;;;;;;4.72;2.53;;;;;;;;;;2066008;28;20052;-96
2022/09/22 02:02:30;;;;;;;4.43;2.50;;;;;;;;;;2062832;28;20124;-89
2022/09/22 02:03:57;;;;;;;4.10;2.65;;;;;;;;;;2063012;28;20030;-90
2022/09/22 02:05:03;;;;;;;2.95;2.47;;;;;;;;;;2063301;28;20030;-90
2022/09/22 02:06:14;;;;;;;3.72;2.55;;;;;;;;;;2063412;28;20468;-90
2022/09/22 02:07:19;;;;;;;;;;;;;;;;;;2071529;28;20116;-90
2022/09/22 02:08:28;;;;;;;3.83;2.42;;;;;;;;;;2063004;28;20296;-90
2022/09/22 02:09:31;;;;;;;3.05;2.75;;;;;;;;;;2063774;28;20101;-90
2022/09/22 02:10:39;;;;;;;3.58;2.58;;;;;;;;;;2062836;28;20037;-89
2022/09/22 02:11:41;;;;;;;3.25;2.70;;;;;;;;;;1711017;28;10226095;-89
2022/09/22 02:12:41;;;;;;;5.80;2.78;;;;;;;;;;2070957;28;20033;-89
2022/09/22 02:13:42;;;;;;;;;;;;;;;;;;2071158;28;20638;-88
2022/09/22 02:14:42;;;;;;;2.57;2.37;;;;;;;;;;2054768;28;19918;-89
2022/09/22 02:16:01;;;;;;;;;;;;;;;;;;1824070;28;10255627;-89
2022/09/22 02:17:01;;;;;;;3.13;2.60;;;;;;;;;;2057306;28;19910;-91
2022/09/22 02:18:07;;;;;;;;;;;;;;;;;;2063371;28;20413;-88
2022/09/22 02:19:17;;;;;;;3.20;2.90;;;;;;;;;;1718370;28;10002256;-90
2022/09/22 02:20:18;;;;;;;4.85;2.95;;;;;;;;;;2064055;28;20034;-91
2022/09/22 02:21:20;;;;;;;5.60;3.22;;;;;;;;;;2068283;28;20137;-90
2022/09/22 02:22:20;;;;;;;3.08;2.53;;;;;;;;;;2064677;28;20057;-90
2022/09/22 02:23:20;;;;;;;;;;;;;;;;;;2065159;28;20046;-90
2022/09/22 02:24:33;;;;;;;4.53;2.67;;;;;;;;;;1713186;28;10194020;-90
2022/09/22 02:25:34;;;;;;;2.47;2.28;;;;;;;;;;2064885;28;20065;-92
2022/09/22 02:26:35;;;;;;;3.13;2.40;;;;;;;;;;2072474;28;20124;-91
2022/09/22 02:27:36;;;;;;;3.83;2.85;;;;;;;;;;2064527;28;20082;-90
2022/09/22 02:28:37;;;;;;;;;;;;;;;;;;2056998;28;20128;-89
2022/09/22 02:29:42;;;;;;;3.20;2.47;;;;;;;;;;2065051;28;19913;-90
2022/09/22 02:30:46;;;;;;;3.38;2.50;;;;;;;;;;2072513;28;20030;-88
2022/09/22 02:31:46;;;;;;;3.20;2.65;;;;;;;;;;2072158;28;20021;-86
2022/09/22 02:32:47;;;;;;;;;;;;;;;;;;2064947;28;20030;-88
2022/09/22 02:33:49;;;;;;;2.63;2.00;;;;;;;;;;2064647;28;19961;-89
2022/09/22 02:34:50;;;;;;;3.33;2.33;;;;;;;;;;2056546;28;20034;-90
2022/09/22 02:36:08;;;;;;;3.35;2.72;;;;;;;;;;2064621;28;20060;-89
2022/09/22 02:37:17;;;;;;;2.70;2.15;;;;;;;;;;2072641;28;20037;-89
2022/09/22 02:38:45;;;;;;;2.33;2.13;;;;;;;;;;2071490;28;20568;-89
2022/09/22 02:40:03;;;;;;;2.60;2.10;;;;;;;;;;2061015;28;20425;-88
2022/09/22 02:41:10;;;;;;;2.80;2.20;;;;;;;;;;2064249;28;20022;-89
2022/09/22 02:42:37;;;;;;;2.38;2.17;;;;;;;;;;2064337;28;20034;-89
2022/09/22 02:43:57;;;;;;;3.20;2.83;;;;;;;;;;2067737;28;20045;-88
2022/09/22 02:45:31;;;;;;;3.03;2.28;;;;;;;;;;2070239;28;20079;-89
2022/09/22 02:46:41;;;;;;;2.85;2.20;;;;;;;;;;2072556;28;20103;-89
2022/09/22 02:47:50;;;;;;;2.80;2.15;;;;;;;;;;2071315;28;20032;-89
2022/09/22 02:48:56;;;;;;;2.47;2.22;;;;;;;;;;2064659;28;20149;-89
2022/09/22 02:49:57;;;;;;;3.78;2.58;;;;;;;;;;2072482;28;20128;-89
2022/09/22 02:50:58;;;;;;;3.30;2.20;;;;;;;;;;2072281;28;20494;-89
2022/09/22 02:51:58;;;;;;;;;;;;;;;;;;2072946;28;20116;-89
2022/09/22 02:53:08;;;;;;;3.03;2.30;;;;;;;;;;2064045;28;20419;-89
2022/09/22 02:54:09;;;;;;;4.55;2.38;;;;;;;;;;2064551;28;20027;-89
2022/09/22 02:55:11;;;;;;;;;;;;;;;;;;2065430;28;20295;-90
2022/09/22 02:56:12;;;;;;;3.17;2.63;;;;;;;;;;2064202;28;20027;-89
2022/09/22 02:57:13;;;;;;;;;;;;;;;;;;2064524;28;20513;-89
2022/09/22 02:58:15;;;;;;;3.67;2.50;;;;;;;;;;2064177;28;20320;-89
2022/09/22 02:59:15;;;;;;;3.75;2.65;;;;;;;;;;2072123;28;20053;-89
2022/09/22 03:00:16;;;;;;;;;;;;;;;;;;2072744;28;20036;-89
2022/09/22 03:01:25;;;;;;;3.79;2.74;;;;;;;;;;2015940;28;10001771;-89
2022/09/22 03:02:25;;;;;;;2.85;2.22;;;;;;;;;;2072310;28;20361;-90
2022/09/22 03:03:26;;;;;;;3.40;2.28;;;;;;;;;;2071147;28;20041;-89
2022/09/22 03:04:26;;;;;;;;;;;;;;;;;;2064590;28;20156;-89
2022/09/22 03:05:27;;;;;;;3.55;2.63;;;;;;;;;;1711470;28;10243697;-89
2022/09/22 03:06:27;;;;;;;2.88;2.30;;;;;;;;;;2064003;28;20478;-89
2022/09/22 03:07:28;;;;;;;2.30;2.10;;;;;;;;;;2055991;28;20442;-89
2022/09/22 03:08:28;;;;;;;3.58;2.13;;;;;;;;;;2064184;28;20105;-90
2022/09/22 03:09:29;;;;;;;;;;;;;;;;;;2065414;28;20022;-90
2022/09/22 03:10:29;;;;;;;3.27;2.63;;;;;;;;;;2072244;28;19956;-88
2022/09/22 03:11:29;;;;;;;2.42;2.13;;;;;;;;;;2072133;28;20048;-88
2022/09/22 03:12:30;;;;;;;;;;;;;;;;;;2064372;28;20030;-87
2022/09/22 03:13:30;;;;;;;2.75;2.00;;;;;;;;;;2064242;28;19937;-88
2022/09/22 03:14:30;;;;;;;2.28;2.00;;;;;;;;;;2072074;28;20038;-88
2022/09/22 03:15:31;;;;;;;;;;;;;;;;;;2072639;28;20365;-88
2022/09/22 03:16:31;;;;;;;2.67;1.97;;;;;;;;;;2072191;28;20272;-88
2022/09/22 03:17:33;;;;;;;;;;;;;;;;;;2064569;28;20600;-88
2022/09/22 03:18:33;;;;;;;3.00;2.20;;;;;;;;;;2064146;28;20430;-87
2022/09/22 03:19:34;;;;;;;3.25;2.30;;;;;;;;;;2072045;28;20030;-89
2022/09/22 03:20:34;;;;;;;;;;;;;;;;;;2064081;28;20069;-88
2022/09/22 03:21:34;;;;;;;3.50;2.30;;;;;;;;;;2066249;28;20300;-88
2022/09/22 03:22:35;;;;;;;;;;;;;;;;;;2068079;28;20030;-89
2022/09/22 03:23:36;;;;;;;2.53;2.13;;;;;;;;;;2066754;28;19914;-88
2022/09/22 03:24:36;;;;;;;2.88;2.40;;;;;;;;;;2066391;28;20488;-89
2022/09/22 03:25:36;;;;;;;3.85;2.33;;;;;;;;;;2064879;28;20030;-88
2022/09/22 03:26:37;;;;;;;;;;;;;;;;;;2067759;28;20057;-87
2022/09/22 03:27:37;;;;;;;2.50;2.13;;;;;;;;;;2074033;28;19948;-88
2022/09/22 03:28:37;;;;;;;;;;;;;;;;;;2073156;28;20030;-89
2022/09/22 03:29:38;;;;;;;3.97;2.67;;;;;;;;;;2065027;28;20222;-89
2022/09/22 03:30:39;;;;;;;2.90;2.40;;;;;;;;;;2072037;28;20153;-88
2022/09/22 03:31:39;;;;;;;2.22;2.03;;;;;;;;;;2071823;28;20523;-89
2022/09/22 03:32:40;;;;;;;2.83;2.40;;;;;;;;;;2064563;28;20291;-91
2022/09/22 03:33:40;;;;;;;;;;;;;;;;;;2072432;28;20038;-89
2022/09/22 03:34:40;;;;;;;3.23;2.20;;;;;;;;;;2072115;28;19951;-89
2022/09/22 03:35:41;;;;;;;2.78;2.13;;;;;;;;;;2064047;28;20030;-90
2022/09/22 03:36:42;;;;;;;2.90;2.20;;;;;;;;;;2063773;28;20137;-89
2022/09/22 03:37:42;;;;;;;3.40;2.40;;;;;;;;;;2064004;28;20109;-89
2022/09/22 03:38:43;;;;;;;2.40;2.05;;;;;;;;;;2072054;28;20432;-88
2022/09/22 03:39:43;;;;;;;3.53;2.13;;;;;;;;;;2064071;28;20089;-89
2022/09/22 03:40:50;;;;;;;;;;;;;;;;;;2064550;28;20037;-89
2022/09/22 03:41:50;;;;;;;2.72;2.08;;;;;;;;;;2063799;28;19913;-89
2022/09/22 03:42:50;;;;;;;;;;;;;;;;;;2056347;28;20476;-89
2022/09/22 03:43:51;;;;;;;3.90;2.45;;;;;;;;;;2064135;28;20216;-90
2022/09/22 03:44:51;;;;;;;2.75;2.28;;;;;;;;;;2063902;28;20106;-90
2022/09/22 03:45:59;;;;;;;2.83;2.33;;;;;;;;;;2063894;28;20030;-90
2022/09/22 03:46:59;;;;;;;2.92;1.90;;;;;;;;;;2071897;28;20511;-89
2022/09/22 03:48:00;;;;;;;;;;;;;;;;;;2072615;28;20025;-90
2022/09/22 03:49:02;;;;;;;2.70;2.40;;;;;;;;;;2063890;28;19936;-91
2022/09/22 03:50:03;;;;;;;2.45;2.20;;;;;;;;;;1719157;28;10001983;-89
2022/09/22 03:51:03;;;;;;;;;;;;;;;;;;2063810;28;20038;-90
2022/09/22 03:52:04;;;;;;;2.10;1.90;;;;;;;;;;2058731;28;19941;-91
2022/09/22 03:53:04;;;;;;;2.92;2.25;;;;;;;;;;2063305;28;20042;-90
2022/09/22 03:54:05;;;;;;;3.13;2.10;;;;;;;;;;2071288;28;20040;-89
2022/09/22 03:55:06;;;;;;;2.45;1.90;;;;;;;;;;2063321;28;20406;-89
2022/09/22 03:56:12;;;;;;;2.40;2.20;;;;;;;;;;2063491;28;20038;-90
2022/09/22 03:57:13;;;;;;;3.55;2.30;;;;;;;;;;2071562;28;20528;-88
2022/09/22 03:58:14;;;;;;;;;;;;;;;;;;2071917;28;20112;-88
2022/09/22 03:59:14;;;;;;;2.78;2.22;;;;;;;;;;2063264;28;20544;-88
2022/09/22 04:00:15;;;;;;;;;;;;;;;;;;2063535;28;20030;-90
2022/09/22 04:01:16;;;;;;;2.53;1.90;;;;;;;;;;2063483;28;19952;-90
2022/09/22 04:02:17;;;;;;;;;;;;;;;;;;2063759;28;20371;-91
2022/09/22 04:03:17;;;;;;;2.60;2.27;;;;;;;;;;2063138;28;19936;-90
2022/09/22 04:04:17;;;;;;;;;;;;;;;;;;2063724;28;20068;-89
2022/09/22 04:05:18;;;;;;;3.47;2.20;;;;;;;;;;2064028;28;20347;-90
2022/09/22 04:06:18;;;;;;;;;;;;;;;;;;2064097;28;20433;-89
2022/09/22 04:07:19;;;;;;;3.73;2.03;;;;;;;;;;2064059;28;19996;-89
2022/09/22 04:08:19;;;;;;;2.88;2.28;;;;;;;;;;2063941;28;20313;-90
2022/09/22 04:09:19;;;;;;;;;;;;;;;;;;2071740;28;20412;-89
2022/09/22 04:10:20;;;;;;;2.83;2.00;;;;;;;;;;2071121;28;20077;-89
2022/09/22 04:11:22;;;;;;;2.83;1.98;;;;;;;;;;2063008;28;20587;-89
2022/09/22 04:12:22;;;;;;;2.60;2.38;;;;;;;;;;2063101;28;20062;-89
2022/09/22 04:13:23;;;;;;;1.98;1.77;;;;;;;;;;1712001;28;10208341;-89
2022/09/22 04:14:23;;;;;;;2.20;2.00;;;;;;;;;;2063268;28;20485;-89
2022/09/22 04:15:23;;;;;;;3.28;2.00;;;;;;;;;;2062944;28;20026;-89
2022/09/22 04:16:24;;;;;;;2.22;1.92;;;;;;;;;;2054779;28;20359;-89
2022/09/22 04:17:24;;;;;;;;;;;;;;;;;;2055335;28;20068;-90
2022/09/22 04:18:25;;;;;;;2.10;1.90;;;;;;;;;;2054893;28;20428;-89
2022/09/22 04:19:25;;;;;;;;;;;;;;;;;;1719300;28;10000254;-89
2022/09/22 04:20:26;;;;;;;2.47;2.17;;;;;;;;;;2063662;28;19914;-89
2022/09/22 04:21:27;;;;;;;2.80;1.90;;;;;;;;;;2063731;28;20449;-89
2022/09/22 04:22:27;;;;;;;;;;;;;;;;;;2063681;28;20159;-89
2022/09/22 04:23:28;;;;;;;2.07;1.77;;;;;;;;;;2062901;28;19913;-89
2022/09/22 04:24:28;;;;;;;2.15;1.92;;;;;;;;;;2063001;28;20050;-89
2022/09/22 04:25:30;;;;;;;2.45;1.80;;;;;;;;;;2063192;28;20506;-89
2022/09/22 04:26:31;;;;;;;2.40;1.88;;;;;;;;;;2063671;28;20046;-89
2022/09/22 04:27:31;;;;;;;;;;;;;;;;;;2071433;28;20029;-88
2022/09/22 04:28:32;;;;;;;2.72;1.92;;;;;;;;;;2063000;28;20276;-89
2022/09/22 04:29:32;;;;;;;2.10;1.90;;;;;;;;;;2062627;28;20077;-89
2022/09/22 04:30:34;;;;;;;3.63;2.03;;;;;;;;;;2062542;28;20114;-90
2022/09/22 04:31:34;;;;;;;2.33;1.90;;;;;;;;;;2062645;28;20038;-89
2022/09/22 04:32:34;;;;;;;;;;;;;;;;;;2063214;28;20121;-90
2022/09/22 04:33:35;;;;;;;3.07;1.90;;;;;;;;;;2063682;28;20452;-89
2022/09/22 04:34:36;;;;;;;;;;;;;;;;;;2063981;28;20123;-89
2022/09/22 04:35:36;;;;;;;2.27;2.07;;;;;;;;;;2070907;28;20333;-90
2022/09/22 04:36:36;;;;;;;3.53;2.30;;;;;;;;;;2062573;28;20026;-90
2022/09/22 04:37:37;;;;;;;;;;;;;;;;;;2063251;28;20120;-90
2022/09/22 04:38:37;;;;;;;4.10;1.95;;;;;;;;;;2062752;28;20003;-89
2022/09/22 04:39:37;;;;;;;;;;;;;;;;;;2055014;28;20180;-91
2022/09/22 04:40:38;;;;;;;2.20;2.00;;;;;;;;;;2054559;28;19954;-89
2022/09/22 04:41:38;;;;;;;2.50;1.90;;;;;;;;;;2062680;28;20105;-89
2022/09/22 04:42:39;;;;;;;;;;;;;;;;;;2071401;28;20045;-91
2022/09/22 04:43:39;;;;;;;4.17;1.87;;;;;;;;;;2070354;28;19909;-90
2022/09/22 04:44:39;;;;;;;;;;;;;;;;;;2071630;28;20026;-89
2022/09/22 04:45:44;;;;;;;3.13;2.20;;;;;;;;;;2071434;28;20351;-89
2022/09/22 04:46:45;;;;;;;4.35;3.45;;;;;;;;;;2070832;28;20021;-91
2022/09/22 04:47:46;;;;;;;;;;;;;;;;;;2063161;28;20111;-90
2022/09/22 04:48:46;;;;;;;2.95;2.10;;;;;;;;;;2063004;28;20356;-89
2022/09/22 04:49:47;;;;;;;3.03;2.40;;;;;;;;;;2063425;28;20042;-89
2022/09/22 04:50:47;;;;;;;;;;;;;;;;;;2064143;28;20325;-89
2022/09/22 04:51:47;;;;;;;2.83;2.13;;;;;;;;;;2063107;28;19918;-89
2022/09/22 04:52:52;;;;;;;2.92;2.40;;;;;;;;;;2070640;28;20101;-90
2022/09/22 04:53:53;;;;;;;5.03;2.47;;;;;;;;;;2070366;28;20025;-89
2022/09/22 04:54:53;;;;;;;;;;;;;;;;;;2064014;28;20022;-89
2022/09/22 04:55:55;;;;;;;2.92;2.58;;;;;;;;;;2063080;28;19914;-89
2022/09/22 04:56:55;;;;;;;2.65;2.30;;;;;;;;;;2062964;28;20030;-90
2022/09/22 04:57:56;;;;;;;;;;;;;;;;;;2055502;28;20121;-89
2022/09/22 04:58:56;;;;;;;3.35;2.40;;;;;;;;;;1710006;28;10046034;-89
2022/09/22 04:59:57;;;;;;;;;;;;;;;;;;2063381;28;20034;-88
2022/09/22 05:01:04;;;;;;;2.65;2.25;;;;;;;;;;2062644;28;19987;-88
2022/09/22 05:02:05;;;;;;;4.32;2.88;;;;;;;;;;2055457;28;20133;-87
2022/09/22 05:03:11;;;;;;;4.00;2.55;;;;;;;;;;1718538;28;10001283;-87
2022/09/22 05:04:11;;;;;;;3.10;2.38;;;;;;;;;;2070547;28;20022;-87
2022/09/22 05:05:11;;;;;;;;;;;;;;;;;;2067898;28;20058;-87
2022/09/22 05:06:12;;;;;;;3.30;2.50;;;;;;;;;;1718264;28;10000932;-86
2022/09/22 05:07:12;;;;;;;;;;;;;;;;;;2062884;28;20042;-87
2022/09/22 05:08:13;;;;;;;2.90;2.50;;;;;;;;;;2066964;28;20253;-87
2022/09/22 05:09:13;;;;;;;;;;;;;;;;;;2063420;28;20061;-87
2022/09/22 05:10:16;;;;;;;3.57;2.77;;;;;;;;;;2063388;28;19957;-88
2022/09/22 05:11:20;;;;;;;3.15;2.50;;;;;;;;;;2071019;28;20120;-87
2022/09/22 05:12:21;;;;;;;2.85;2.20;;;;;;;;;;2070643;28;20030;-88
2022/09/22 05:13:21;;;;;;;;;;;;;;;;;;2063217;28;20417;-88
2022/09/22 05:14:21;;;;;;;2.57;2.37;;;;;;;;;;2068248;28;19910;-87
2022/09/22 05:15:22;;;;;;;;;;;;;;;;;;2076061;28;20033;-88
2022/09/22 05:16:22;;;;;;;6.30;4.25;;;;;;;;;;2064763;28;19920;-88
2022/09/22 05:17:23;;;;;;;;;;;;;;;;;;2063219;28;20158;-86
2022/09/22 05:18:23;;;;;;;4.07;3.17;;;;;;;;;;2062826;28;20356;-88
2022/09/22 05:19:24;;;;;;;;;;;;;;;;;;2063195;28;20081;-87
2022/09/22 05:20:24;;;;;;;7.43;3.80;;;;;;;;;;2063137;28;19918;-88
2022/09/22 05:21:25;;;;;;;3.22;2.40;;;;;;;;;;2062295;28;20058;-89
2022/09/22 05:22:25;;;;;;;3.05;2.70;;;;;;;;;;2062286;28;20094;-87
2022/09/22 05:23:25;;;;;;;;;;;;;;;;;;2062689;28;20544;-86
2022/09/22 05:24:26;;;;;;;4.70;3.22;;;;;;;;;;2054540;28;20000;-89
2022/09/22 05:25:26;;;;;;;4.43;2.90;;;;;;;;;;2054446;28;20026;-89
2022/09/22 05:26:27;;;;;;;5.97;3.38;;;;;;;;;;2062320;28;20041;-88
2022/09/22 05:27:27;;;;;;;3.72;2.58;;;;;;;;;;2062450;28;20096;-90
2022/09/22 05:28:28;;;;;;;3.13;2.40;;;;;;;;;;2062228;28;20088;-89
2022/09/22 05:29:29;;;;;;;4.53;3.00;;;;;;;;;;2065123;28;20277;-89
2022/09/22 05:30:30;;;;;;;;;;;;;;;;;;2062883;28;20148;-89
2022/09/22 05:31:31;;;;;;;3.53;2.87;;;;;;;;;;2054709;28;19965;-88
2022/09/22 05:32:32;;;;;;;2.60;2.28;;;;;;;;;;2070877;28;20028;-91
2022/09/22 05:33:32;;;;;;;;;;;;;;;;;;1711322;28;10210203;-88
2022/09/22 05:34:32;;;;;;;2.65;2.40;;;;;;;;;;1711265;28;10195862;-90
2022/09/22 05:35:33;;;;;;;3.47;2.80;;;;;;;;;;2070170;28;20343;-90
2022/09/22 05:36:33;;;;;;;4.32;2.90;;;;;;;;;;2068914;28;20026;-90
2022/09/22 05:37:34;;;;;;;3.85;2.25;;;;;;;;;;2064076;28;20017;-89
2022/09/22 05:38:34;;;;;;;;;;;;;;;;;;2064371;28;20034;-89
2022/09/22 05:39:34;;;;;;;3.30;2.95;;;;;;;;;;2070480;28;19920;-90
2022/09/22 05:40:35;;;;;;;3.13;2.65;;;;;;;;;;2070714;28;20033;-90
2022/09/22 05:41:35;;;;;;;6.50;2.88;;;;;;;;;;2063312;28;20022;-89
2022/09/22 05:42:44;;;;;;;2.80;2.60;;;;;;;;;;2065941;28;20042;-88
2022/09/22 05:43:45;;;;;;;3.03;2.38;;;;;;;;;;2057602;28;20414;-89
2022/09/22 05:44:47;;;;;;;;;;;;;;;;;;2063033;28;20053;-89
2022/09/22 05:45:48;;;;;;;4.05;2.92;;;;;;;;;;2070242;28;19936;-89
2022/09/22 05:46:48;;;;;;;;;;;;;;;;;;2071201;28;20029;-89
2022/09/22 05:47:49;;;;;;;3.87;2.73;;;;;;;;;;2071056;28;19956;-89
2022/09/22 05:48:50;;;;;;;3.17;2.88;;;;;;;;;;2070667;28;20488;-90
2022/09/22 05:49:50;;;;;;;;;;;;;;;;;;2069420;28;20027;-89
2022/09/22 05:50:50;;;;;;;3.67;2.50;;;;;;;;;;2061734;28;19988;-89
2022/09/22 05:51:58;;;;;;;4.00;2.60;;;;;;;;;;2061937;28;20029;-90
2022/09/22 05:53:08;;;;;;;3.03;2.63;;;;;;;;;;2059490;28;20129;-96
2022/09/22 05:54:14;;;;;;;3.67;2.60;;;;;;;;;;2051633;28;20051;-96
2022/09/22 05:55:20;;;;;;;3.20;2.78;;;;;;;;;;2046055;28;20028;-96
2022/09/22 05:56:21;;;;;;;4.68;2.65;;;;;;;;;;2057892;28;20406;-96
2022/09/22 05:57:31;;;;;;;3.90;2.35;;;;;;;;;;2058261;28;20031;-96
2022/09/22 05:58:31;;;;;;;3.67;2.85;;;;;;;;;;2067059;28;20626;-90
2022/09/22 05:59:31;;;;;;;;;;;;;;;;;;2062730;28;20112;-89
2022/09/22 06:00:32;;;;;;;3.37;2.97;;;;;;;;;;2069975;28;20016;-89
2022/09/22 06:01:33;;;;;;;3.50;2.75;;;;;;;;;;2071529;28;20072;-89
2022/09/22 06:02:33;;;;;;;3.95;2.90;;;;;;;;;;2062483;28;20034;-89
2022/09/22 06:03:33;;;;;;;3.83;3.40;;;;;;;;;;2062223;28;20065;-90
2022/09/22 06:04:34;;;;;;;3.67;2.78;;;;;;;;;;2069997;28;20041;-90
2022/09/22 06:05:34;;;;;;;3.30;2.58;;;;;;;;;;2070461;28;20558;-90
2022/09/22 06:06:35;;;;;;;3.67;2.67;;;;;;;;;;2066959;28;20022;-90
2022/09/22 06:07:35;;;;;;;4.30;2.70;;;;;;;;;;2070412;28;20025;-89
2022/09/22 06:08:35;;;;;;;;;;;;;;;;;;2066743;28;20037;-90
2022/09/22 06:09:36;;;;;;;4.50;2.87;;;;;;;;;;2062600;28;19916;-90
2022/09/22 06:10:37;;;;;;;;;;;;;;;;;;2072590;28;20179;-90
2022/09/22 06:11:37;;;;;;;3.50;2.57;;;;;;;;;;2069956;28;20004;-91
2022/09/22 06:12:38;;;;;;;3.75;2.55;;;;;;;;;;2067647;28;20096;-90
2022/09/22 06:13:39;;;;;;;3.67;3.00;;;;;;;;;;2070440;28;20197;-88
2022/09/22 06:14:41;;;;;;;;;;;;;;;;;;2055802;28;20026;-90
2022/09/22 06:15:47;;;;;;;3.83;2.42;;;;;;;;;;2062248;28;19910;-90
2022/09/22 06:16:47;;;;;;;3.90;2.67;;;;;;;;;;2070445;28;20033;-90
2022/09/22 06:17:50;;;;;;;;;;;;;;;;;;2070858;28;20131;-89
2022/09/22 06:19:00;;;;;;;3.58;2.86;;;;;;;;;;2034019;28;10243157;-91
2022/09/22 06:20:01;;;;;;;2.90;2.40;;;;;;;;;;2070024;28;20259;-89
2022/09/22 06:21:01;;;;;;;3.58;2.30;;;;;;;;;;2070527;28;20057;-90
2022/09/22 06:22:02;;;;;;;;;;;;;;;;;;2067881;28;20481;-90
2022/09/22 06:23:02;;;;;;;4.00;2.00;;;;;;;;;;2070581;28;19913;-91
2022/09/22 06:24:11;;;;;;;2.67;2.10;;;;;;;;;;2070631;28;20544;-93
2022/09/22 06:25:11;;;;;;;3.22;2.00;;;;;;;;;;2073936;28;20089;-91
2022/09/22 06:26:12;;;;;;;2.30;2.00;;;;;;;;;;2070708;28;20026;-90
2022/09/22 06:27:12;;;;;;;3.95;2.28;;;;;;;;;;2072934;28;20115;-92
2022/09/22 06:28:13;;;;;;;2.60;2.17;;;;;;;;;;2075230;28;20500;-88
2022/09/22 06:29:17;;;;;;;6.05;2.47;;;;;;;;;;2074658;28;20028;-91
2022/09/22 06:30:20;;;;;;;2.47;2.10;;;;;;;;;;2073974;28;20022;-90
2022/09/22 06:31:20;;;;;;;2.38;2.05;;;;;;;;;;2071093;28;20441;-90
2022/09/22 06:32:21;;;;;;;1.70;1.60;;;;;;;;;;2071264;28;20041;-89